Terminal Aerodrome Forecast
Issued by NWS

Home | Current Version | Previous Version | Text Only | Print | Product List | Glossary Off
Versions: 1 2 3 4 5 6 7 8 9 10 11 12

260
FTUS42 KMHX 141740
TAFOAJ
TAF
KOAJ 141740Z 1418/1518 01010KT P6SM SKC
     FM150000 02005KT P6SM SKC
     FM150700 01005KT P6SM SCT015 SCT250
      AMD LTD TO CLD VIS AND WIND=

USA.gov is the U.S. government's official web portal to all federal, state and local government web resources and services.